Mont Vernon, New Hampshire
Current Conditions -  °F | °C
As of 2:51 PM on Saturday 25 Oct 2014 (Local Time) from KASH Reporting Station
Scattered Clouds Scattered Clouds  
Wind Chill: 65°   Ceiling: Unl
Heat Index: 65°   Visibility: 10mi
Dew Point: 39°   Wind: 0mph
Humidity: 38%   Direction: NA
Pressure: 29.61"   Gusts: NA
Location:  42.89°N, 71.67°W
Report Text: KASH 251851Z 00000KT 10SM SCT060 18/04 A2961 RMK AO2 T01830038 SLP272 $
Loading
Personal Weather Stations






























Interactive Weather Map
Tropical Storm Tracking
New forecast layout! Learn more

10-Day Weather Forecast

Advertisements
Track Severe Weather on mobile